Flight Track Log - Related Links

Times and Time Zones

All times are in EDT time to prevent confusion due to time zone crossing. See the SWA1629 flight status page for this flight to view local times or setup timezone preferences in your user account.

Time Position Orientation Groundspeed Altitude Reporting Facility
EDT Latitude Longitude Course Direction KTS MPH feet Rate Location/Type
Mon 09:24:23 AM 33.9283 -118.4319 223° Southwest 168 193 1,400  Level Los Angeles Center
Mon 09:25:24 AM 33.8778 -118.4883 223° Southwest 220 253 4,100 3,246 Climbing Los Angeles Center
Mon 09:26:25 AM 33.8222 -118.5619 228° Southwest 280 322 8,000 3,689 Climbing Los Angeles Center
Mon 09:27:26 AM 33.8139 -118.6617 264° West 299 344 11,600 3,590 Climbing Los Angeles Center
Mon 09:28:27 AM 33.8067 -118.7783 266° West 351 404 15,300 3,541 Climbing Los Angeles Center
Mon 09:29:28 AM 33.8792 -118.8664 315° West 374 430 18,800 3,366 Climbing Los Angeles Center
Mon 09:30:30 AM 33.9589 -118.9514 319° Northwest 382 440 22,200 2,683 Climbing Los Angeles Center
Mon 09:31:31 AM 34.0386 -119.0386 318° Northwest 385 443 24,300 2,311 Climbing Los Angeles Center
Mon 09:32:32 AM 34.1194 -119.1253 318° Northwest 386 444 26,900 2,262 Climbing Los Angeles Center
Mon 09:33:33 AM 34.2044 -119.2147 319° Northwest 403 464 28,900 2,164 Climbing Los Angeles Center
Mon 09:34:34 AM 34.3031 -119.2875 329° Northwest 415 478 31,300 2,341 Climbing Los Angeles Center
Mon 09:35:36 AM 34.4086 -119.3400 338° Northwest 411 473 33,700 2,195 Climbing Los Angeles Center
Mon 09:36:37 AM 34.5119 -119.3942 337° Northwest 409 471 35,800 1,131 Climbing Los Angeles Center
Mon 09:37:38 AM 34.6311 -119.4556 337° Northwest 404 465 36,000 98 Climbing Los Angeles Center
Mon 09:38:40 AM 34.7344 -119.5075 338° Northwest 404 465 36,000  Level Los Angeles Center
Mon 09:39:41 AM 34.8383 -119.5594 338° Northwest 404 465 36,000  Level Los Angeles Center
Mon 09:40:42 AM 34.9361 -119.6197 333° Northwest 400 460 36,000  Level Los Angeles Center
Mon 09:41:44 AM 35.0347 -119.6825 332° Northwest 400 460 36,000  Level Los Angeles Center
Mon 09:42:45 AM 35.1328 -119.7450 332° Northwest 400 460 36,000  Level Los Angeles Center
Mon 09:43:47 AM 35.2503 -119.8194 333° Northwest 400 460 36,000  Level Los Angeles Center
Mon 09:44:48 AM 35.3481 -119.8822 332° Northwest 400 460 36,000  Level Los Angeles Center
Mon 09:45:49 AM 35.4450 -119.9450 332° Northwest 399 459 36,000  Level Los Angeles Center
Mon 09:46:51 AM 35.5431 -120.0081 332° Northwest 400 460 36,000  Level Los Angeles Center
Mon 09:47:52 AM 35.6394 -120.0719 332° Northwest 400 460 36,000  Level Los Angeles Center
Mon 09:48:34 AM 35.7186 -120.1225 333° Northwest 400 460 36,000  Level Oakland Center
Mon 09:49:35 AM 35.8167 -120.1867 332° Northwest 400 460 36,000  Level Oakland Center
Mon 09:50:36 AM 35.9144 -120.2514 332° Northwest 400 460 36,000  Level Oakland Center
Mon 09:51:36 AM 36.0131 -120.3161 332° Northwest 400 460 36,000  Level Oakland Center
Mon 09:52:37 AM 36.1117 -120.3797 332° Northwest 401 461 36,000  Level Oakland Center
Mon 09:53:38 AM 36.2097 -120.4464 331° Northwest 401 461 36,000 -787 Level Oakland Center
Mon 09:54:39 AM 36.3075 -120.5117 332° Northwest 401 461 34,400 -2,262 Descending Oakland Center
Mon 09:55:40 AM 36.4056 -120.5756 332° Northwest 400 460 31,400 -2,705 Descending Oakland Center
Mon 09:56:41 AM 36.5028 -120.6419 331° Northwest 400 460 28,900 -1,721 Descending Oakland Center
Mon 09:57:42 AM 36.5986 -120.7039 333° Northwest 393 452 27,900 -1,140 Descending Oakland Center
Mon 09:58:42 AM 36.7147 -120.7822 332° Northwest 393 452 26,600 -1,736 Descending Oakland Center
Mon 09:59:43 AM 36.7919 -120.8692 318° Northwest 372 428 24,400 -2,164 Descending Oakland Center
Mon 10:00:44 AM 36.8692 -120.9578 317° Northwest 369 425 22,200 -2,066 Descending Oakland Center
Mon 10:01:45 AM 36.9408 -121.0394 318° Northwest 355 409 20,200 -2,016 Descending Oakland Center
Mon 10:02:46 AM 37.0131 -121.1231 317° Northwest 354 407 18,100 -1,967 Descending Oakland Center
Mon 10:03:47 AM 37.0797 -121.1981 318° Northwest 351 404 16,200 -2,132 Descending Oakland Center
Mon 10:04:47 AM 37.1544 -121.2858 317° Northwest 345 397 13,800 -2,231 Descending Oakland Center
Mon 10:05:48 AM 37.2231 -121.3644 318° Northwest 337 388 11,700 -1,770 Descending Oakland Center
Mon 10:06:49 AM 37.2900 -121.4431 317° Northwest 332 382 10,200 -1,082 Descending Oakland Center
Mon 10:07:50 AM 37.3514 -121.5131 318° Northwest 303 349 9,500 -796 Descending Oakland Center
Mon 10:08:27 AM 37.4000 -121.5667 319° Northwest 291 335 8,900 -990 Descending Northern Cal TRACON
Mon 10:09:27 AM 37.4500 -121.6333 313° West 284 327 7,900 -1,000 Descending Northern Cal TRACON
Mon 10:10:21 AM 37.5000 -121.7000 313° West 286 329 7,000 -632 Descending Northern Cal TRACON
Mon 10:11:21 AM 37.5167 -121.7833 284° West 278 320 6,700 -600 Descending Northern Cal TRACON
Mon 10:12:21 AM 37.5500 -121.8667 297° West 253 291 5,800 -850 Descending Northern Cal TRACON
Mon 10:13:21 AM 37.5833 -121.9500 297° West 238 274 5,000 -1,000 Descending Northern Cal TRACON
Mon 10:14:15 AM 37.6000 -122.0167 288° West 216 249 3,900 -1,316 Descending Northern Cal TRACON
Mon 10:15:15 AM 37.6167 -122.0833 288° West 203 234 2,500 -1,049 Descending Northern Cal TRACON
Mon 10:15:58 AM 37.6328 -122.1156 302° West 197 227 2,100 -692 Descending Oakland Center
Mon 10:16:59 AM 37.6617 -122.1564 312° West 170 196 1,300 -738 Descending Oakland Center
Mon 10:18:00 AM 37.6861 -122.1928 310° West 152 175 600 9,197 Descending Oakland Center
Mon 10:19:01 AM 37.7106 -122.2289 311° West 142 163 20,000 19,082 Climbing Oakland Center
Mon 10:21:00 AM 37.7167 -122.2167 270° West  Level FlightAware Approximate

Login

Don't have an account? Register now (free) for customized features, flight alerts, and more!